Terminal Aerodrome Forecast
Issued by NWS Portland, OR

Home | Current Version | Previous Version | Text Only | Print | Product List | Glossary On
Versions: 1 2 3 4 5 6 7 8 9 10 11 12 13 14 15 16 17 18
000
FTUS46 KPQR 291042 AAA
TAFTTD
TAF AMD
KTTD 291042Z 2911/3006 30004KT P6SM FEW035
     FM291300 00000KT P6SM OVC020
     FM291800 30005KT P6SM SCT025 SCT050=

USA.gov is the U.S. government's official web portal to all federal, state and local government web resources and services.